Time;durP1;ratioP1;P1;durP2;ratioP2;P2;SDS_P1;SDS_P2;PMS_P1;PMS_P2;Temp;Humidity;BMP_temperature;BMP_pressure;BME280_temperature;BME280_humidity;BME280_pressure;Samples;Min_cycle;Max_cycle;Signal;HPM_P1;HPM_P2
2021/08/09 00:01:55;;;;;;;11.02;5.28;;;;;;;25.96;59.07;99184.09;5120257;27;20044;-40
2021/08/09 00:04:24;;;;;;;9.82;4.95;;;;;;;25.86;59.20;99207.00;5120251;27;20041;-41
2021/08/09 00:06:50;;;;;;;10.27;5.60;;;;;;;25.77;59.72;99213.84;5125194;27;20096;-41
2021/08/09 00:09:17;;;;;;;12.50;5.30;;;;;;;25.84;59.28;99193.78;5132164;27;20046;-40
2021/08/09 00:11:44;;;;;;;11.35;5.63;;;;;;;25.56;60.62;99218.00;5132983;27;20048;-40
2021/08/09 00:14:10;;;;;;;10.23;5.55;;;;;;;25.38;61.47;99230.75;5130768;27;20039;-41
2021/08/09 00:16:37;;;;;;;13.40;5.78;;;;;;;25.51;60.72;99200.50;5133278;27;20431;-41
2021/08/09 00:19:04;;;;;;;10.07;5.50;;;;;;;25.39;61.27;99200.47;5122026;27;20092;-41
2021/08/09 00:21:32;;;;;;;11.30;5.60;;;;;;;25.22;61.81;99196.25;5126898;27;20435;-41
2021/08/09 00:23:58;;;;;;;10.25;5.78;;;;;;;25.17;61.65;99206.38;5112620;28;20147;-41
2021/08/09 00:26:29;;;;;;;9.70;5.50;;;;;;;25.17;61.40;99219.72;5116343;27;20096;-41
2021/08/09 00:28:56;;;;;;;13.25;5.88;;;;;;;25.01;61.79;99225.19;5114384;28;20051;-41
2021/08/09 00:31:22;;;;;;;13.70;5.95;;;;;;;25.04;61.42;99211.66;5119580;27;20051;-41
2021/08/09 00:33:49;;;;;;;12.70;5.50;;;;;;;25.02;61.04;99226.91;5131636;27;20046;-40
2021/08/09 00:36:16;;;;;;;10.98;5.57;;;;;;;24.75;61.53;99251.72;5122078;28;20048;-41
2021/08/09 00:38:44;;;;;;;14.20;6.00;;;;;;;24.56;61.85;99319.50;5126273;28;20039;-41
2021/08/09 00:41:10;;;;;;;13.43;5.88;;;;;;;24.46;61.63;99325.44;5120389;28;20035;-41
2021/08/09 00:43:37;;;;;;;14.77;5.80;;;;;;;24.60;61.29;99319.28;5115417;28;20108;-41
2021/08/09 00:46:04;;;;;;;10.85;5.50;;;;;;;24.65;60.79;99330.53;5121360;28;20232;-40
2021/08/09 00:48:31;;;;;;;13.50;5.82;;;;;;;24.47;61.01;99357.31;5126990;28;20083;-41
2021/08/09 00:50:58;;;;;;;11.75;5.65;;;;;;;24.68;60.35;99372.94;5118006;28;20050;-41
2021/08/09 00:53:25;;;;;;;13.32;5.82;;;;;;;24.73;59.91;99376.19;5111591;28;20051;-41
2021/08/09 00:55:53;;;;;;;9.57;5.03;;;;;;;24.76;59.50;99400.00;5115481;28;20045;-41
2021/08/09 00:58:20;;;;;;;10.68;5.40;;;;;;;24.80;58.99;99380.19;5118516;28;20040;-41
2021/08/09 01:00:46;;;;;;;12.43;5.00;;;;;;;24.64;58.88;99379.41;5120181;28;20482;-40
2021/08/09 01:03:13;;;;;;;13.98;5.32;;;;;;;24.58;58.97;99369.16;5123925;28;20095;-40
2021/08/09 01:05:40;;;;;;;9.35;4.43;;;;;;;24.62;58.73;99344.03;5127136;27;20036;-40
2021/08/09 01:08:12;;;;;;;9.88;4.88;;;;;;;24.72;58.36;99350.53;5115625;28;20446;-41
2021/08/09 01:10:43;;;;;;;8.98;4.60;;;;;;;24.86;58.20;99337.16;5115529;28;20101;-41
2021/08/09 01:13:15;;;;;;;11.40;4.97;;;;;;;24.95;57.95;99357.91;5121823;28;20047;-41
2021/08/09 01:15:43;;;;;;;8.98;4.32;;;;;;;25.05;57.76;99363.50;5116314;28;20051;-40
2021/08/09 01:18:10;;;;;;;8.48;4.47;;;;;;;25.10;57.57;99372.03;5115024;28;20088;-40
2021/08/09 01:20:46;;;;;;;7.75;4.38;;;;;;;25.16;57.46;99421.47;5119399;28;20047;-40
2021/08/09 01:23:19;;;;;;;9.73;4.18;;;;;;;25.22;57.15;99441.56;5112581;28;20039;-40
2021/08/09 01:25:49;;;;;;;9.98;4.32;;;;;;;25.25;57.02;99434.25;5116067;28;20442;-41
2021/08/09 01:28:17;;;;;;;8.32;4.20;;;;;;;25.27;56.89;99405.66;5117878;28;20043;-41
2021/08/09 01:30:44;;;;;;;8.23;4.50;;;;;;;25.27;57.07;99405.66;5125587;28;20047;-41
2021/08/09 01:33:11;;;;;;;9.65;4.43;;;;;;;25.27;56.89;99445.69;5125893;28;20559;-41
2021/08/09 01:35:38;;;;;;;10.32;4.50;;;;;;;25.23;57.10;99451.31;5118819;28;20063;-40
2021/08/09 01:38:05;;;;;;;9.00;4.60;;;;;;;25.27;56.89;99442.16;5126259;28;20055;-41
2021/08/09 01:40:32;;;;;;;10.50;4.50;;;;;;;25.28;57.06;99427.84;5118148;27;20378;-41
2021/08/09 01:42:59;;;;;;;8.52;4.15;;;;;;;25.31;56.50;99433.84;5111711;28;20043;-40
2021/08/09 01:45:27;;;;;;;11.45;4.78;;;;;;;25.29;56.92;99433.09;5119960;27;20047;-40
2021/08/09 01:47:54;;;;;;;10.13;4.55;;;;;;;25.30;56.67;99436.63;5115687;27;20109;-41
2021/08/09 01:50:21;;;;;;;9.23;4.28;;;;;;;25.32;56.90;99446.25;5128876;27;20047;-40
2021/08/09 01:52:48;;;;;;;9.32;4.30;;;;;;;25.35;56.77;99446.03;5116545;27;20447;-41
2021/08/09 01:55:16;;;;;;;9.02;4.07;;;;;;;25.38;56.69;99462.78;5131510;27;20048;-41
2021/08/09 01:57:43;;;;;;;8.50;4.45;;;;;;;25.38;56.51;99465.47;5117003;27;20052;-41
2021/08/09 02:00:12;;;;;;;10.82;4.45;;;;;;;25.30;56.86;99472.16;5116088;27;20096;-40
2021/08/09 02:02:40;;;;;;;10.23;4.60;;;;;;;25.10;57.52;99445.84;5116238;27;20044;-41
2021/08/09 02:05:08;;;;;;;9.70;5.00;;;;;;;24.87;58.19;99439.28;5125897;27;20095;-40
2021/08/09 02:07:35;;;;;;;7.20;4.05;;;;;;;24.92;57.92;99456.72;5118933;27;20065;-40
2021/08/09 02:10:03;;;;;;;10.85;4.30;;;;;;;24.90;57.92;99471.94;5128656;27;20108;-40
2021/08/09 02:12:30;;;;;;;8.52;4.50;;;;;;;24.91;57.94;99480.78;5115306;28;20100;-40
2021/08/09 02:14:57;;;;;;;10.52;4.22;;;;;;;25.01;57.58;99479.28;5117994;27;20093;-40
2021/08/09 02:17:30;;;;;;;8.25;4.07;;;;;;;25.06;57.30;99476.31;5129068;27;20097;-40
2021/08/09 02:20:00;;;;;;;8.95;4.53;;;;;;;25.11;56.91;99476.91;5124536;27;20096;-40
2021/08/09 02:22:30;;;;;;;9.25;4.30;;;;;;;25.14;56.68;99463.38;5119883;27;20043;-40
2021/08/09 02:24:58;;;;;;;10.63;4.10;;;;;;;25.16;56.82;99456.13;5124935;27;20116;-41
2021/08/09 02:27:27;;;;;;;8.52;4.13;;;;;;;25.17;56.79;99460.53;5119535;27;20056;-40
2021/08/09 02:29:54;;;;;;;9.48;4.25;;;;;;;25.19;56.63;99455.94;5125024;27;20108;-41
2021/08/09 02:32:21;;;;;;;8.23;3.90;;;;;;;25.21;56.50;99459.38;5116914;27;20044;-41
2021/08/09 02:34:48;;;;;;;9.20;3.95;;;;;;;25.20;56.27;99454.97;5128201;27;20104;-40
2021/08/09 02:37:16;;;;;;;6.20;3.20;;;;;;;25.19;56.05;99455.94;5119824;27;20093;-41
2021/08/09 02:39:43;;;;;;;7.35;3.08;;;;;;;25.20;56.08;99459.47;5131190;27;20099;-41
2021/08/09 02:42:10;;;;;;;7.28;2.97;;;;;;;25.20;55.29;99449.63;5114266;28;20048;-40
2021/08/09 02:44:37;;;;;;;5.18;2.40;;;;;;;25.21;55.16;99446.03;5115100;27;20088;-41
2021/08/09 02:47:04;;;;;;;4.82;2.60;;;;;;;25.22;54.91;99450.47;5117557;27;20066;-40
2021/08/09 02:49:30;;;;;;;4.05;2.10;;;;;;;25.20;54.70;99441.63;5117286;27;20497;-40
2021/08/09 02:51:57;;;;;;;4.88;1.83;;;;;;;25.19;54.49;99445.28;5130816;27;20104;-41
2021/08/09 02:54:25;;;;;;;3.17;2.00;;;;;;;25.16;54.47;99450.78;5126311;27;20043;-40
2021/08/09 02:56:52;;;;;;;3.72;1.80;;;;;;;25.14;54.39;99450.91;5121965;27;20047;-41
2021/08/09 02:59:19;;;;;;;4.28;1.90;;;;;;;25.16;54.34;99450.78;5118241;27;20043;-41
2021/08/09 03:01:45;;;;;;;4.18;1.80;;;;;;;25.15;54.52;99449.09;5130056;27;20050;-40
2021/08/09 03:04:15;;;;;;;5.82;2.13;;;;;;;25.17;54.28;99457.00;5122479;27;20096;-40
2021/08/09 03:06:41;;;;;;;1.80;1.50;;;;;;;25.16;54.26;99458.78;5120151;27;20096;-41
2021/08/09 03:09:08;;;;;;;4.50;1.70;;;;;;;25.12;54.48;99462.59;5122833;27;20469;-41
2021/08/09 03:11:36;;;;;;;5.07;1.67;;;;;;;25.11;54.26;99455.56;5122516;27;20740;-41
2021/08/09 03:14:03;;;;;;;4.13;1.63;;;;;;;25.12;54.38;99465.28;5129449;27;21438;-41
2021/08/09 03:16:30;;;;;;;7.00;1.60;;;;;;;25.11;54.41;99479.56;5125058;27;20043;-40
2021/08/09 03:18:56;;;;;;;5.05;1.90;;;;;;;25.11;54.30;99484.91;5122441;27;20043;-41
2021/08/09 03:21:23;;;;;;;2.35;1.70;;;;;;;25.09;54.38;99482.31;5125275;27;20547;-40
2021/08/09 03:23:50;;;;;;;3.30;1.92;;;;;;;25.09;54.37;99490.31;5118431;27;20093;-41
2021/08/09 03:26:17;;;;;;;1.95;1.50;;;;;;;25.09;54.10;99493.00;5127951;27;20743;-40
2021/08/09 03:28:45;;;;;;;2.55;1.60;;;;;;;25.08;54.39;99482.41;5118091;27;20039;-40
2021/08/09 03:31:11;;;;;;;2.72;1.55;;;;;;;25.09;53.96;99492.16;5118332;27;20092;-40
2021/08/09 03:33:38;;;;;;;3.42;1.70;;;;;;;25.06;54.18;99479.00;5116194;27;20044;-40
2021/08/09 03:36:05;;;;;;;3.90;1.63;;;;;;;25.07;54.02;99462.06;5119154;27;20043;-41
2021/08/09 03:38:32;;;;;;;5.20;1.50;;;;;;;25.07;54.19;99467.38;5124027;27;20055;-40
2021/08/09 03:40:58;;;;;;;2.03;1.60;;;;;;;25.02;54.40;99458.81;5123167;27;20052;-40
2021/08/09 03:43:25;;;;;;;2.78;1.42;;;;;;;25.05;54.00;99453.31;5123946;27;20031;-40
2021/08/09 03:45:53;;;;;;;3.15;1.80;;;;;;;25.03;54.02;99442.72;5118055;27;20059;-40
2021/08/09 03:48:20;;;;;;;3.58;1.80;;;;;;;25.04;53.94;99446.25;5119961;27;20394;-40
2021/08/09 03:50:47;;;;;;;3.10;1.58;;;;;;;25.05;54.10;99442.63;5132400;27;20047;-40
2021/08/09 03:53:13;;;;;;;1.50;1.40;;;;;;;25.03;53.79;99449.84;5130280;27;20047;-41
2021/08/09 03:55:40;;;;;;;3.53;1.40;;;;;;;25.00;53.73;99453.56;5132917;27;20462;-40
2021/08/09 03:58:07;;;;;;;3.10;1.60;;;;;;;24.98;53.57;99447.47;5130742;27;20043;-40
2021/08/09 04:00:35;;;;;;;2.88;1.50;;;;;;;24.95;53.51;99445.88;5129426;27;20546;-40
2021/08/09 04:03:04;;;;;;;2.10;1.55;;;;;;;24.95;53.53;99440.53;5130895;27;20043;-40
2021/08/09 04:05:30;;;;;;;2.38;1.50;;;;;;;24.89;53.81;99438.25;5123669;27;20046;-40
2021/08/09 04:07:57;;;;;;;1.88;1.45;;;;;;;24.87;53.51;99429.50;5115400;27;20051;-40
2021/08/09 04:10:24;;;;;;;1.83;1.40;;;;;;;24.89;53.49;99435.59;5122768;27;20047;-41
2021/08/09 04:12:51;;;;;;;12.13;1.92;;;;;;;24.90;53.55;99442.63;5116937;27;20047;-40
2021/08/09 04:15:18;;;;;;;5.63;2.00;;;;;;;24.88;53.54;99439.19;5122351;27;20473;-41
2021/08/09 04:17:44;;;;;;;4.65;1.60;;;;;;;24.89;53.43;99437.38;5127896;27;20039;-41
2021/08/09 04:20:13;;;;;;;3.72;1.83;;;;;;;24.84;53.19;99435.00;5126190;27;20039;-41
2021/08/09 04:22:40;;;;;;;5.28;1.50;;;;;;;24.82;53.55;99441.41;5126871;27;20055;-41
2021/08/09 04:25:08;;;;;;;3.17;1.70;;;;;;;24.79;53.17;99450.41;5124904;27;20047;-41
2021/08/09 04:27:34;;;;;;;2.20;1.45;;;;;;;24.77;53.50;99460.31;5132154;27;20047;-41
2021/08/09 04:30:01;;;;;;;2.20;1.42;;;;;;;24.75;53.35;99462.22;5124915;27;20043;-40
2021/08/09 04:32:37;;;;;;;2.30;1.60;;;;;;;24.77;53.09;99466.50;5122622;27;20051;-41
2021/08/09 04:35:04;;;;;;;2.58;1.70;;;;;;;24.78;53.11;99464.72;5116077;28;20745;-41
2021/08/09 04:37:32;;;;;;;4.05;1.67;;;;;;;24.75;53.40;99456.88;5118588;27;20187;-40
2021/08/09 04:39:59;;;;;;;3.70;1.85;;;;;;;24.76;53.18;99466.63;5132282;28;20496;-41
2021/08/09 04:42:26;;;;;;;3.05;1.60;;;;;;;24.76;53.21;99463.94;5118308;28;20043;-41
2021/08/09 04:44:52;;;;;;;7.00;1.90;;;;;;;24.78;53.20;99462.03;5124716;28;20105;-40
2021/08/09 04:47:19;;;;;;;2.78;1.65;;;;;;;24.79;53.14;99468.22;5121657;28;20043;-40
2021/08/09 04:49:46;;;;;;;5.35;1.73;;;;;;;24.80;53.12;99468.13;5116613;28;20132;-41
2021/08/09 04:52:12;;;;;;;8.88;2.50;;;;;;;24.82;53.33;99468.03;5120885;27;20042;-41
2021/08/09 04:54:40;;;;;;;7.40;2.35;;;;;;;24.83;53.09;99475.91;5119112;28;20122;-40
2021/08/09 04:57:08;;;;;;;6.35;1.83;;;;;;;24.82;53.24;99487.53;5125689;28;20047;-41
2021/08/09 04:59:34;;;;;;;6.50;2.00;;;;;;;24.82;53.02;99484.88;5116685;28;20044;-41
2021/08/09 05:02:01;;;;;;;11.68;2.47;;;;;;;24.80;53.63;99486.78;5118415;28;20039;-41
2021/08/09 05:04:28;;;;;;;6.50;1.70;;;;;;;24.85;52.92;99473.16;5122373;28;20116;-42
2021/08/09 05:06:54;;;;;;;3.60;1.60;;;;;;;24.89;52.79;99474.69;5115959;28;20089;-43
2021/08/09 05:09:21;;;;;;;10.10;1.98;;;;;;;24.88;53.04;99473.84;5114548;28;20478;-43
2021/08/09 05:11:49;;;;;;;4.38;1.70;;;;;;;24.88;53.20;99467.66;5117111;28;20096;-43
2021/08/09 05:14:16;;;;;;;9.80;2.20;;;;;;;24.88;53.28;99473.00;5125882;27;20039;-43
2021/08/09 05:16:43;;;;;;;3.80;1.65;;;;;;;24.85;53.10;99482.00;5128897;28;20043;-43
2021/08/09 05:19:11;;;;;;;7.28;1.73;;;;;;;24.85;53.15;99483.81;5131734;27;20050;-43
2021/08/09 05:21:38;;;;;;;5.20;1.70;;;;;;;24.82;53.40;99474.22;5134480;27;20054;-43
2021/08/09 05:24:05;;;;;;;3.10;1.63;;;;;;;24.83;53.44;99475.06;5131971;27;20458;-43
2021/08/09 05:26:32;;;;;;;4.35;1.80;;;;;;;24.82;53.43;99484.88;5136365;27;20221;-43
2021/08/09 05:29:00;;;;;;;14.38;2.67;;;;;;;24.84;53.60;99474.13;5133655;27;20485;-43
2021/08/09 05:31:27;;;;;;;9.48;2.50;;;;;;;24.83;53.37;99478.59;5136374;27;20043;-43
2021/08/09 05:33:54;;;;;;;7.40;2.30;;;;;;;24.77;53.46;99471.81;5134130;27;20111;-43
2021/08/09 05:36:20;;;;;;;7.97;2.30;;;;;;;24.75;53.54;99467.53;5133845;27;20100;-43
2021/08/09 05:38:47;;;;;;;5.80;1.83;;;;;;;24.77;53.56;99470.97;5133962;27;20462;-43
2021/08/09 05:41:14;;;;;;;7.68;1.85;;;;;;;24.79;53.39;99479.72;5135970;27;20100;-42
2021/08/09 05:43:40;;;;;;;4.53;1.92;;;;;;;24.79;53.31;99479.72;5135742;27;20047;-42
2021/08/09 05:46:08;;;;;;;5.35;1.98;;;;;;;24.81;53.20;99484.97;5122122;27;20088;-43
2021/08/09 05:48:35;;;;;;;3.53;1.77;;;;;;;24.80;53.28;99478.78;5135894;27;20047;-42
2021/08/09 05:51:02;;;;;;;5.43;1.73;;;;;;;24.78;53.08;99472.69;5123582;27;20063;-43
2021/08/09 05:53:30;;;;;;;3.63;1.80;;;;;;;24.75;53.18;99473.72;5129526;27;20101;-43
2021/08/09 05:55:56;;;;;;;3.58;1.60;;;;;;;24.77;52.97;99473.63;5126021;27;20078;-43
2021/08/09 05:58:23;;;;;;;6.55;1.75;;;;;;;24.74;52.93;99489.81;5118742;27;20108;-43
2021/08/09 06:00:50;;;;;;;3.97;1.80;;;;;;;24.76;52.86;99480.78;5114896;28;20105;-43
2021/08/09 06:03:22;;;;;;;4.30;1.60;;;;;;;24.75;52.63;99476.38;5128094;27;20092;-43
2021/08/09 06:05:48;;;;;;;5.85;1.70;;;;;;;24.78;52.54;99483.34;5115220;27;20051;-43
2021/08/09 06:08:15;;;;;;;5.75;1.90;;;;;;;24.77;52.35;99481.63;5114842;27;20088;-43
2021/08/09 06:10:42;;;;;;;3.45;1.80;;;;;;;24.79;52.12;99471.72;5120865;27;20047;-43
2021/08/09 06:13:08;;;;;;;3.03;1.90;;;;;;;24.82;52.44;99484.88;5123054;27;20047;-43
2021/08/09 06:15:35;;;;;;;4.25;1.90;;;;;;;24.83;52.08;99488.41;5133586;27;20479;-43
2021/08/09 06:18:02;;;;;;;5.00;2.08;;;;;;;24.87;52.29;99493.47;5135099;27;20084;-43
2021/08/09 06:20:30;;;;;;;3.42;2.05;;;;;;;24.85;51.89;99495.34;5118366;27;20116;-42
2021/08/09 06:22:58;;;;;;;5.22;2.05;;;;;;;24.89;51.99;99490.69;5123621;27;20047;-43
2021/08/09 06:25:25;;;;;;;4.07;2.00;;;;;;;24.92;51.46;99485.19;5135087;27;20058;-43
2021/08/09 06:27:52;;;;;;;7.03;2.20;;;;;;;24.96;51.60;99492.03;5127870;27;20093;-43
2021/08/09 06:30:18;;;;;;;5.25;1.90;;;;;;;24.99;51.44;99488.31;5126802;27;20040;-43
2021/08/09 06:32:45;;;;;;;3.67;1.92;;;;;;;25.01;51.53;99494.41;5115308;27;20051;-43
2021/08/09 06:35:12;;;;;;;5.45;1.85;;;;;;;25.03;51.24;99492.50;5114503;27;20043;-42
2021/08/09 06:37:41;;;;;;;4.68;2.10;;;;;;;25.04;51.34;99486.22;5128746;27;20047;-42
2021/08/09 06:40:09;;;;;;;4.55;1.85;;;;;;;25.05;51.28;99490.63;5114594;28;20108;-43
2021/08/09 06:42:35;;;;;;;4.85;1.80;;;;;;;25.04;50.98;99497.75;5126983;27;20042;-42
2021/08/09 06:45:02;;;;;;;2.72;1.73;;;;;;;25.06;51.28;99495.84;5120367;27;20039;-43
2021/08/09 06:47:29;;;;;;;4.95;2.20;;;;;;;25.13;50.91;99496.31;5123857;27;20043;-43
2021/08/09 06:49:55;;;;;;;4.35;1.90;;;;;;;25.12;50.69;99499.94;5128538;27;20052;-43
2021/08/09 06:52:22;;;;;;;3.55;1.80;;;;;;;25.15;50.74;99505.09;5123438;27;20039;-42
2021/08/09 06:54:50;;;;;;;3.30;2.10;;;;;;;25.17;50.61;99489.84;5119828;27;20081;-42
2021/08/09 06:57:17;;;;;;;4.63;2.00;;;;;;;25.18;50.42;99502.22;5126734;27;20405;-42
2021/08/09 06:59:44;;;;;;;5.05;2.05;;;;;;;25.20;50.37;99497.63;5128162;27;20092;-42
2021/08/09 07:02:10;;;;;;;3.28;1.98;;;;;;;25.24;50.11;99507.22;5113830;28;20558;-43
2021/08/09 07:04:37;;;;;;;2.58;1.90;;;;;;;25.23;49.95;99502.81;5114038;28;20076;-43
2021/08/09 07:07:04;;;;;;;4.32;2.30;;;;;;;25.25;50.15;99506.25;5128038;27;20580;-43
2021/08/09 07:09:31;;;;;;;6.15;1.92;;;;;;;25.28;49.77;99511.41;5124395;27;20047;-43
2021/08/09 07:11:59;;;;;;;2.25;1.90;;;;;;;25.29;49.79;99510.44;5119788;27;20048;-43
2021/08/09 07:14:25;;;;;;;3.20;1.80;;;;;;;25.28;49.67;99508.75;5125560;27;20436;-43
2021/08/09 07:16:52;;;;;;;2.00;1.80;;;;;;;25.31;49.63;99518.34;5128086;27;20043;-43
2021/08/09 07:19:19;;;;;;;2.13;1.85;;;;;;;25.31;49.68;99510.34;5120373;27;20565;-43
2021/08/09 07:21:46;;;;;;;1.92;1.77;;;;;;;25.33;49.49;99517.28;5120817;27;20116;-43
2021/08/09 07:24:12;;;;;;;4.78;1.88;;;;;;;25.36;49.54;99521.59;5128052;27;20083;-43
2021/08/09 07:26:39;;;;;;;6.03;2.03;;;;;;;25.39;49.41;99525.88;5125075;27;20557;-42
2021/08/09 07:29:07;;;;;;;3.10;1.83;;;;;;;25.40;49.29;99519.59;5116161;27;20093;-43
2021/08/09 07:31:34;;;;;;;3.33;1.80;;;;;;;25.42;49.29;99518.53;5113545;27;20043;-43
2021/08/09 07:34:01;;;;;;;2.42;1.92;;;;;;;25.44;49.34;99524.63;5115098;27;20043;-43
2021/08/09 07:36:27;;;;;;;2.28;1.85;;;;;;;25.46;49.32;99528.06;5125158;27;20451;-43
2021/08/09 07:38:54;;;;;;;3.50;1.88;;;;;;;25.49;49.34;99530.53;5123728;27;20043;-43
2021/08/09 07:41:21;;;;;;;5.13;2.28;;;;;;;25.51;49.29;99523.31;5130323;27;20489;-43
2021/08/09 07:43:48;;;;;;;3.17;1.80;;;;;;;25.54;48.95;99522.25;5121877;27;20042;-43
2021/08/09 07:46:16;;;;;;;2.60;1.92;;;;;;;25.55;48.97;99521.28;5119383;27;20040;-43
2021/08/09 07:48:43;;;;;;;3.08;1.90;;;;;;;25.54;48.59;99517.75;5126654;27;20092;-43
2021/08/09 07:51:10;;;;;;;2.42;1.90;;;;;;;25.57;48.96;99519.38;5126665;27;20043;-43
2021/08/09 07:53:37;;;;;;;2.00;1.90;;;;;;;25.58;49.08;99515.75;5113757;28;20134;-43
2021/08/09 07:56:04;;;;;;;2.83;1.90;;;;;;;25.59;48.83;99517.47;5123315;27;20092;-43
2021/08/09 07:58:30;;;;;;;2.20;2.00;;;;;;;25.62;48.66;99527.94;5119083;27;20084;-43
2021/08/09 08:00:58;;;;;;;3.85;2.00;;;;;;;25.64;48.73;99530.50;5123766;27;20120;-43
2021/08/09 08:03:26;;;;;;;5.15;2.10;;;;;;;25.67;48.76;99530.34;5127370;27;20096;-43
2021/08/09 08:05:53;;;;;;;3.33;2.00;;;;;;;25.67;48.71;99530.34;5121392;27;20051;-43
2021/08/09 08:08:19;;;;;;;2.10;1.90;;;;;;;25.69;48.58;99523.94;5118442;27;20566;-43
2021/08/09 08:10:46;;;;;;;2.75;2.10;;;;;;;25.71;48.40;99527.34;5126580;27;20171;-43
2021/08/09 08:13:13;;;;;;;3.38;2.15;;;;;;;25.70;48.20;99533.63;5125357;27;20446;-43
2021/08/09 08:15:39;;;;;;;2.45;2.00;;;;;;;25.75;48.37;99522.69;5118576;27;20047;-43
2021/08/09 08:18:06;;;;;;;1.95;1.80;;;;;;;25.74;48.40;99537.84;5121749;27;20043;-43
2021/08/09 08:20:34;;;;;;;2.40;2.03;;;;;;;25.77;48.25;99541.28;5127082;27;20084;-43
2021/08/09 08:23:04;;;;;;;2.20;1.90;;;;;;;25.78;48.13;99538.47;5122305;27;20043;-43
2021/08/09 08:25:30;;;;;;;1.90;1.80;;;;;;;25.81;48.06;99548.13;5118650;27;20043;-43
2021/08/09 08:27:57;;;;;;;3.28;1.75;;;;;;;25.82;48.04;99548.00;5124755;27;20490;-43
2021/08/09 08:30:24;;;;;;;3.47;2.10;;;;;;;25.84;48.13;99555.91;5127155;27;20043;-43
2021/08/09 08:32:51;;;;;;;3.42;2.00;;;;;;;25.86;47.87;99546.88;5112647;27;20094;-43
2021/08/09 08:35:17;;;;;;;2.30;1.80;;;;;;;25.89;47.85;99548.47;5112160;27;20489;-43
2021/08/09 08:37:45;;;;;;;2.40;1.90;;;;;;;25.91;47.94;99550.13;5112720;27;20077;-43
2021/08/09 08:40:12;;;;;;;2.63;1.90;;;;;;;25.93;47.76;99555.38;5125674;28;20044;-42
2021/08/09 08:42:39;;;;;;;4.40;1.75;;;;;;;25.94;47.87;99554.41;5125830;28;20088;-42
2021/08/09 08:45:08;;;;;;;2.42;1.83;;;;;;;25.95;47.71;99556.13;5118348;28;20049;-43
2021/08/09 08:47:34;;;;;;;2.63;1.92;;;;;;;25.98;47.97;99555.94;5121045;27;20451;-43
2021/08/09 08:50:03;;;;;;;3.30;1.98;;;;;;;26.00;47.83;99559.38;5126085;28;20043;-43
2021/08/09 08:52:29;;;;;;;3.90;1.92;;;;;;;26.00;47.86;99561.16;5122825;27;20051;-43
2021/08/09 08:54:58;;;;;;;2.15;1.95;;;;;;;26.04;47.81;99568.03;5122479;27;20044;-43
2021/08/09 08:57:24;;;;;;;3.70;2.10;;;;;;;26.03;47.72;99559.16;5128083;27;20100;-43
2021/08/09 08:59:51;;;;;;;2.55;1.85;;;;;;;26.06;47.80;99561.63;5130873;27;20170;-43
2021/08/09 09:02:32;;;;;;;2.22;1.95;;;;;;;26.10;47.77;99543.59;5123425;27;20047;-43
2021/08/09 09:05:06;;;;;;;5.82;2.30;;;;;;;26.11;47.62;99546.19;5122253;27;20126;-43
2021/08/09 09:07:33;;;;;;;4.15;2.10;;;;;;;26.11;47.83;99551.50;5128516;27;20047;-43
2021/08/09 09:10:16;;;;;;;2.63;1.98;;;;;;;26.15;47.58;99551.28;5130433;27;20579;-43
2021/08/09 09:12:43;;;;;;;2.05;1.73;;;;;;;26.15;47.92;99560.16;5124515;27;20043;-43
2021/08/09 09:15:12;;;;;;;2.40;1.90;;;;;;;26.16;47.38;99550.34;5121866;27;20047;-43
2021/08/09 09:17:39;;;;;;;4.43;2.08;;;;;;;26.18;47.50;99557.28;5129091;27;20516;-43
2021/08/09 09:20:23;;;;;;;2.60;2.10;;;;;;;26.21;47.28;99550.88;5129499;27;20040;-43
2021/08/09 09:22:49;;;;;;;3.60;2.17;;;;;;;26.21;47.41;99549.09;5116177;28;20052;-43
2021/08/09 09:25:18;;;;;;;3.70;2.00;;;;;;;26.25;47.33;99552.38;5130090;27;20044;-43
2021/08/09 09:27:45;;;;;;;2.78;2.03;;;;;;;26.24;47.70;99550.69;5115670;27;20043;-43
2021/08/09 09:30:28;;;;;;;2.53;2.22;;;;;;;26.25;47.32;99547.06;5114833;27;20044;-43
2021/08/09 09:33:00;;;;;;;2.88;2.10;;;;;;;26.27;47.09;99545.16;5115477;28;20440;-43
2021/08/09 09:35:27;;;;;;;2.80;2.00;;;;;;;26.28;47.35;99552.19;5129265;27;20039;-43
2021/08/09 09:37:54;;;;;;;4.75;2.00;;;;;;;26.29;47.26;99552.09;5117672;27;20451;-43
2021/08/09 09:40:22;;;;;;;3.60;2.17;;;;;;;26.30;47.22;99547.63;5136257;27;20114;-43
2021/08/09 09:42:49;;;;;;;3.28;1.98;;;;;;;26.31;47.17;99549.34;5121491;27;20044;-43
2021/08/09 09:45:23;;;;;;;2.20;2.00;;;;;;;26.33;47.18;99550.09;5129248;27;20089;-43
2021/08/09 09:48:01;;;;;;;3.70;2.08;;;;;;;26.32;47.13;99551.88;5129268;27;20083;-43
2021/08/09 09:50:28;;;;;;;5.05;2.08;;;;;;;26.35;47.10;99555.31;5115357;28;20055;-43
2021/08/09 09:52:55;;;;;;;3.55;2.15;;;;;;;26.35;47.06;99550.84;5129249;27;20408;-43
2021/08/09 09:55:23;;;;;;;2.25;2.00;;;;;;;26.37;47.14;99556.94;5121130;27;20047;-43
2021/08/09 09:57:50;;;;;;;2.28;2.08;;;;;;;26.37;46.42;99550.75;5123449;27;20521;-43
2021/08/09 10:00:18;;;;;;;3.97;1.98;;;;;;;26.37;46.76;99561.44;5129180;27;20039;-43
2021/08/09 10:02:45;;;;;;;3.35;2.10;;;;;;;26.38;46.28;99555.97;5125159;27;20129;-43
2021/08/09 10:05:12;;;;;;;2.60;2.10;;;;;;;26.38;46.40;99555.97;5120340;27;20132;-43
2021/08/09 10:07:39;;;;;;;4.05;2.17;;;;;;;26.38;46.39;99552.44;5126541;27;20120;-43
2021/08/09 10:10:08;;;;;;;4.57;2.10;;;;;;;26.40;46.29;99554.06;5129420;27;20446;-43
2021/08/09 10:12:37;;;;;;;2.17;1.90;;;;;;;26.42;46.27;99556.63;5122645;27;20047;-43
2021/08/09 10:15:05;;;;;;;2.30;1.80;;;;;;;26.43;45.97;99563.69;5121182;27;20123;-43
2021/08/09 10:17:31;;;;;;;2.22;1.80;;;;;;;26.42;45.97;99572.66;5114925;27;20044;-43
2021/08/09 10:20:02;;;;;;;2.88;1.90;;;;;;;26.43;45.34;99567.22;5127317;27;20047;-43
2021/08/09 10:22:29;;;;;;;1.98;1.85;;;;;;;26.42;46.31;99562.81;5115588;27;20052;-43
2021/08/09 10:24:56;;;;;;;4.95;2.13;;;;;;;26.45;45.85;99570.63;5114534;27;20105;-43
2021/08/09 10:27:52;;;;;;;2.95;2.00;;;;;;;26.45;45.99;99564.44;5113846;27;20043;-43
2021/08/09 10:30:19;;;;;;;3.30;2.10;;;;;;;26.46;45.23;99559.00;5114948;28;20102;-43
2021/08/09 10:32:46;;;;;;;2.15;1.95;;;;;;;26.46;45.44;99553.66;5128963;27;20098;-43
2021/08/09 10:36:01;;;;;;;2.22;2.00;;;;;;;26.46;45.44;99559.00;5126729;27;20129;-42
2021/08/09 10:38:37;;;;;;;2.35;2.00;;;;;;;26.47;45.52;99558.03;5121238;27;20043;-43
2021/08/09 10:41:27;;;;;;;3.33;2.10;;;;;;;26.49;45.85;99564.13;5120721;27;20063;-43
2021/08/09 10:44:26;;;;;;;3.60;1.83;;;;;;;26.48;45.54;99554.41;5114000;28;20100;-43
2021/08/09 10:46:54;;;;;;;2.80;2.00;;;;;;;26.48;45.25;99565.09;5128679;27;20043;-43
2021/08/09 10:49:57;;;;;;;2.40;1.90;;;;;;;26.49;45.50;99564.13;5126506;27;20046;-43
2021/08/09 10:52:40;;;;;;;2.75;1.90;;;;;;;26.52;45.35;99557.72;5114557;28;20455;-43
2021/08/09 10:55:46;;;;;;;2.05;1.88;;;;;;;26.50;45.70;99573.00;5128858;27;20044;-43
2021/08/09 10:58:51;;;;;;;2.55;2.00;;;;;;;26.51;45.48;99570.22;5128230;27;20054;-43
2021/08/09 11:01:21;;;;;;;3.10;2.13;;;;;;;26.50;45.56;99573.88;5126758;27;20039;-43
2021/08/09 11:04:13;;;;;;;2.78;2.00;;;;;;;26.50;45.44;99573.88;5119455;27;20050;-43
2021/08/09 11:06:41;;;;;;;2.22;1.92;;;;;;;26.50;45.36;99576.53;5119474;27;20486;-43
2021/08/09 11:09:53;;;;;;;2.53;2.00;;;;;;;26.52;45.25;99577.31;5127130;27;20550;-43
2021/08/09 11:12:22;;;;;;;2.88;2.05;;;;;;;26.50;45.59;99571.19;5128088;27;20559;-43
2021/08/09 11:15:25;;;;;;;2.20;2.00;;;;;;;26.52;45.11;99571.06;5125356;27;20489;-43
2021/08/09 11:17:57;;;;;;;2.20;2.00;;;;;;;26.52;45.28;99577.31;5112329;28;20039;-43
2021/08/09 11:20:26;;;;;;;2.63;2.00;;;;;;;26.55;45.37;99580.72;5127596;27;20546;-43
2021/08/09 11:23:01;;;;;;;1.95;1.75;;;;;;;26.53;45.20;99572.81;5121220;27;20043;-43
2021/08/09 11:25:28;;;;;;;2.75;1.90;;;;;;;26.53;45.25;99568.31;5117868;27;20097;-43
2021/08/09 11:28:02;;;;;;;2.75;1.90;;;;;;;26.52;45.66;99571.06;5115743;27;20089;-43
2021/08/09 11:30:40;;;;;;;2.05;1.85;;;;;;;26.55;45.41;99570.03;5118834;27;20043;-43
2021/08/09 11:33:19;;;;;;;2.33;2.00;;;;;;;26.53;45.08;99565.63;5121739;27;20067;-43
2021/08/09 11:35:45;;;;;;;2.47;2.10;;;;;;;26.53;45.21;99562.13;5118990;27;20409;-43
2021/08/09 11:38:12;;;;;;;3.13;1.98;;;;;;;26.53;45.00;99557.63;5129432;27;20065;-43
2021/08/09 11:40:44;;;;;;;2.63;2.13;;;;;;;26.57;44.50;99568.13;5123197;27;20043;-43